sensor_id;sensor_type;location;lat;lon;timestamp;P1;durP1;ratioP1;P2;durP2;ratioP2
54881;SDS011;40775;51.448;4.742;2023-11-21T00:01:11;5.65;;;2.83;;
54881;SDS011;40775;51.448;4.742;2023-11-21T00:03:38;4.63;;;2.75;;
54881;SDS011;40775;51.448;4.742;2023-11-21T00:06:06;4.60;;;2.60;;
54881;SDS011;40775;51.448;4.742;2023-11-21T00:08:35;5.10;;;2.65;;
54881;SDS011;40775;51.448;4.742;2023-11-21T00:11:03;5.82;;;2.90;;
54881;SDS011;40775;51.448;4.742;2023-11-21T00:13:32;7.25;;;2.65;;
54881;SDS011;40775;51.448;4.742;2023-11-21T00:16:00;5.45;;;2.63;;
54881;SDS011;40775;51.448;4.742;2023-11-21T00:18:27;4.90;;;2.75;;
54881;SDS011;40775;51.448;4.742;2023-11-21T00:20:54;4.40;;;2.75;;
54881;SDS011;40775;51.448;4.742;2023-11-21T00:23:21;5.10;;;2.60;;
54881;SDS011;40775;51.448;4.742;2023-11-21T00:25:47;4.30;;;2.15;;
54881;SDS011;40775;51.448;4.742;2023-11-21T00:28:14;4.78;;;2.67;;
54881;SDS011;40775;51.448;4.742;2023-11-21T00:30:42;4.22;;;2.33;;
54881;SDS011;40775;51.448;4.742;2023-11-21T00:33:09;4.85;;;2.47;;
54881;SDS011;40775;51.448;4.742;2023-11-21T00:35:36;6.00;;;2.90;;
54881;SDS011;40775;51.448;4.742;2023-11-21T00:38:03;6.90;;;2.92;;
54881;SDS011;40775;51.448;4.742;2023-11-21T00:40:30;4.00;;;2.25;;
54881;SDS011;40775;51.448;4.742;2023-11-21T00:42:57;5.25;;;2.70;;
54881;SDS011;40775;51.448;4.742;2023-11-21T00:45:24;4.13;;;2.20;;
54881;SDS011;40775;51.448;4.742;2023-11-21T00:47:52;5.32;;;2.75;;
54881;SDS011;40775;51.448;4.742;2023-11-21T00:50:19;5.53;;;2.55;;
54881;SDS011;40775;51.448;4.742;2023-11-21T00:52:46;6.05;;;2.90;;
54881;SDS011;40775;51.448;4.742;2023-11-21T00:55:13;7.15;;;2.88;;
54881;SDS011;40775;51.448;4.742;2023-11-21T00:57:40;5.50;;;2.60;;
54881;SDS011;40775;51.448;4.742;2023-11-21T01:00:07;5.30;;;2.45;;
54881;SDS011;40775;51.448;4.742;2023-11-21T01:02:43;5.18;;;2.20;;
54881;SDS011;40775;51.448;4.742;2023-11-21T01:05:11;4.72;;;2.70;;
54881;SDS011;40775;51.448;4.742;2023-11-21T01:07:38;3.97;;;2.33;;
54881;SDS011;40775;51.448;4.742;2023-11-21T01:10:05;6.63;;;2.83;;
54881;SDS011;40775;51.448;4.742;2023-11-21T01:12:34;5.57;;;2.70;;
54881;SDS011;40775;51.448;4.742;2023-11-21T01:15:04;4.45;;;2.25;;
54881;SDS011;40775;51.448;4.742;2023-11-21T01:17:38;5.53;;;2.47;;
54881;SDS011;40775;51.448;4.742;2023-11-21T01:20:07;5.00;;;2.35;;
54881;SDS011;40775;51.448;4.742;2023-11-21T01:25:07;3.72;;;1.88;;
54881;SDS011;40775;51.448;4.742;2023-11-21T01:27:34;5.32;;;2.60;;
54881;SDS011;40775;51.448;4.742;2023-11-21T01:30:02;4.25;;;2.28;;
54881;SDS011;40775;51.448;4.742;2023-11-21T01:32:29;6.43;;;2.22;;
54881;SDS011;40775;51.448;4.742;2023-11-21T01:34:57;4.57;;;2.20;;
54881;SDS011;40775;51.448;4.742;2023-11-21T01:37:23;5.60;;;2.20;;
54881;SDS011;40775;51.448;4.742;2023-11-21T01:39:54;4.53;;;2.58;;
54881;SDS011;40775;51.448;4.742;2023-11-21T01:42:22;5.32;;;2.50;;
54881;SDS011;40775;51.448;4.742;2023-11-21T01:44:49;5.03;;;2.30;;
54881;SDS011;40775;51.448;4.742;2023-11-21T01:47:16;5.82;;;2.25;;
54881;SDS011;40775;51.448;4.742;2023-11-21T01:49:44;5.97;;;2.40;;
54881;SDS011;40775;51.448;4.742;2023-11-21T01:52:12;5.22;;;2.35;;
54881;SDS011;40775;51.448;4.742;2023-11-21T01:54:41;4.35;;;2.38;;
54881;SDS011;40775;51.448;4.742;2023-11-21T01:57:08;4.38;;;2.20;;
54881;SDS011;40775;51.448;4.742;2023-11-21T01:59:37;3.00;;;1.83;;
54881;SDS011;40775;51.448;4.742;2023-11-21T02:02:05;4.30;;;1.95;;
54881;SDS011;40775;51.448;4.742;2023-11-21T02:04:33;6.70;;;2.25;;
54881;SDS011;40775;51.448;4.742;2023-11-21T02:07:01;5.07;;;2.33;;
54881;SDS011;40775;51.448;4.742;2023-11-21T02:09:32;4.57;;;2.17;;
54881;SDS011;40775;51.448;4.742;2023-11-21T02:12:00;5.45;;;2.45;;
54881;SDS011;40775;51.448;4.742;2023-11-21T02:14:28;4.78;;;2.22;;
54881;SDS011;40775;51.448;4.742;2023-11-21T02:16:57;4.97;;;2.08;;
54881;SDS011;40775;51.448;4.742;2023-11-21T02:19:24;4.97;;;1.67;;
54881;SDS011;40775;51.448;4.742;2023-11-21T02:21:56;4.25;;;1.98;;
54881;SDS011;40775;51.448;4.742;2023-11-21T02:24:27;3.75;;;1.80;;
54881;SDS011;40775;51.448;4.742;2023-11-21T02:26:54;4.47;;;2.58;;
54881;SDS011;40775;51.448;4.742;2023-11-21T02:29:21;3.08;;;1.67;;
54881;SDS011;40775;51.448;4.742;2023-11-21T02:31:54;3.65;;;1.65;;
54881;SDS011;40775;51.448;4.742;2023-11-21T02:34:22;5.22;;;2.08;;
54881;SDS011;40775;51.448;4.742;2023-11-21T02:36:51;5.93;;;2.17;;
54881;SDS011;40775;51.448;4.742;2023-11-21T02:39:20;4.07;;;2.08;;
54881;SDS011;40775;51.448;4.742;2023-11-21T02:41:48;4.65;;;2.50;;
54881;SDS011;40775;51.448;4.742;2023-11-21T02:44:15;4.50;;;2.08;;
54881;SDS011;40775;51.448;4.742;2023-11-21T02:46:42;3.30;;;1.83;;
54881;SDS011;40775;51.448;4.742;2023-11-21T02:49:09;5.57;;;2.22;;
54881;SDS011;40775;51.448;4.742;2023-11-21T02:51:36;4.22;;;2.00;;
54881;SDS011;40775;51.448;4.742;2023-11-21T02:54:06;4.38;;;2.03;;
54881;SDS011;40775;51.448;4.742;2023-11-21T02:56:34;5.50;;;2.22;;
54881;SDS011;40775;51.448;4.742;2023-11-21T02:59:01;5.20;;;2.30;;
54881;SDS011;40775;51.448;4.742;2023-11-21T03:01:28;3.70;;;2.17;;
54881;SDS011;40775;51.448;4.742;2023-11-21T03:03:56;3.90;;;1.83;;
54881;SDS011;40775;51.448;4.742;2023-11-21T03:06:23;6.65;;;2.17;;
54881;SDS011;40775;51.448;4.742;2023-11-21T03:08:50;3.25;;;1.85;;
54881;SDS011;40775;51.448;4.742;2023-11-21T03:11:17;5.72;;;2.40;;
54881;SDS011;40775;51.448;4.742;2023-11-21T03:13:44;4.05;;;2.47;;
54881;SDS011;40775;51.448;4.742;2023-11-21T03:16:11;4.53;;;1.92;;
54881;SDS011;40775;51.448;4.742;2023-11-21T03:18:39;5.50;;;1.85;;
54881;SDS011;40775;51.448;4.742;2023-11-21T03:21:07;3.10;;;1.83;;
54881;SDS011;40775;51.448;4.742;2023-11-21T03:23:37;6.03;;;2.25;;
54881;SDS011;40775;51.448;4.742;2023-11-21T03:26:04;6.88;;;2.35;;
54881;SDS011;40775;51.448;4.742;2023-11-21T03:28:34;3.75;;;2.13;;
54881;SDS011;40775;51.448;4.742;2023-11-21T03:31:01;3.60;;;1.95;;
54881;SDS011;40775;51.448;4.742;2023-11-21T03:33:28;4.47;;;2.40;;
54881;SDS011;40775;51.448;4.742;2023-11-21T03:35:55;4.05;;;2.25;;
54881;SDS011;40775;51.448;4.742;2023-11-21T03:38:22;4.47;;;2.40;;
54881;SDS011;40775;51.448;4.742;2023-11-21T03:40:49;5.05;;;2.10;;
54881;SDS011;40775;51.448;4.742;2023-11-21T03:43:17;6.18;;;2.72;;
54881;SDS011;40775;51.448;4.742;2023-11-21T03:45:44;3.90;;;2.20;;
54881;SDS011;40775;51.448;4.742;2023-11-21T03:48:11;6.25;;;2.60;;
54881;SDS011;40775;51.448;4.742;2023-11-21T03:50:39;4.63;;;2.55;;
54881;SDS011;40775;51.448;4.742;2023-11-21T03:53:06;4.95;;;2.50;;
54881;SDS011;40775;51.448;4.742;2023-11-21T03:55:33;4.63;;;2.90;;
54881;SDS011;40775;51.448;4.742;2023-11-21T03:58:00;5.03;;;2.47;;
54881;SDS011;40775;51.448;4.742;2023-11-21T04:00:27;4.03;;;1.98;;
54881;SDS011;40775;51.448;4.742;2023-11-21T04:02:54;5.25;;;2.30;;
54881;SDS011;40775;51.448;4.742;2023-11-21T04:05:22;6.68;;;2.30;;
54881;SDS011;40775;51.448;4.742;2023-11-21T04:07:50;4.53;;;2.53;;
54881;SDS011;40775;51.448;4.742;2023-11-21T04:10:17;4.13;;;2.40;;
54881;SDS011;40775;51.448;4.742;2023-11-21T04:12:45;6.00;;;2.47;;
54881;SDS011;40775;51.448;4.742;2023-11-21T04:15:12;5.57;;;2.45;;
54881;SDS011;40775;51.448;4.742;2023-11-21T04:17:40;6.97;;;2.92;;
54881;SDS011;40775;51.448;4.742;2023-11-21T04:20:08;4.63;;;2.28;;
54881;SDS011;40775;51.448;4.742;2023-11-21T04:22:37;7.20;;;2.70;;
54881;SDS011;40775;51.448;4.742;2023-11-21T04:25:10;6.13;;;2.28;;
54881;SDS011;40775;51.448;4.742;2023-11-21T04:27:40;5.20;;;2.40;;
54881;SDS011;40775;51.448;4.742;2023-11-21T04:30:13;3.35;;;1.83;;
54881;SDS011;40775;51.448;4.742;2023-11-21T04:32:41;3.92;;;1.85;;
54881;SDS011;40775;51.448;4.742;2023-11-21T04:35:08;4.32;;;2.38;;
54881;SDS011;40775;51.448;4.742;2023-11-21T04:37:35;8.00;;;2.65;;
54881;SDS011;40775;51.448;4.742;2023-11-21T04:40:03;3.95;;;1.95;;
54881;SDS011;40775;51.448;4.742;2023-11-21T04:42:34;4.72;;;2.40;;
54881;SDS011;40775;51.448;4.742;2023-11-21T04:45:05;4.35;;;2.35;;
54881;SDS011;40775;51.448;4.742;2023-11-21T04:47:39;4.47;;;1.95;;
54881;SDS011;40775;51.448;4.742;2023-11-21T04:50:06;3.83;;;2.17;;
54881;SDS011;40775;51.448;4.742;2023-11-21T04:52:34;5.47;;;2.53;;
54881;SDS011;40775;51.448;4.742;2023-11-21T04:55:01;3.78;;;2.15;;
54881;SDS011;40775;51.448;4.742;2023-11-21T04:57:30;4.22;;;2.38;;
54881;SDS011;40775;51.448;4.742;2023-11-21T04:59:57;6.47;;;2.72;;
54881;SDS011;40775;51.448;4.742;2023-11-21T05:02:24;5.10;;;2.85;;
54881;SDS011;40775;51.448;4.742;2023-11-21T05:05:01;4.35;;;2.30;;
54881;SDS011;40775;51.448;4.742;2023-11-21T05:07:32;5.30;;;2.97;;
54881;SDS011;40775;51.448;4.742;2023-11-21T05:10:03;5.40;;;2.95;;
54881;SDS011;40775;51.448;4.742;2023-11-21T05:12:41;5.30;;;2.20;;
54881;SDS011;40775;51.448;4.742;2023-11-21T05:15:09;4.25;;;2.17;;
54881;SDS011;40775;51.448;4.742;2023-11-21T05:17:40;3.55;;;2.25;;
54881;SDS011;40775;51.448;4.742;2023-11-21T05:20:10;6.70;;;2.92;;
54881;SDS011;40775;51.448;4.742;2023-11-21T05:22:39;3.67;;;2.10;;
54881;SDS011;40775;51.448;4.742;2023-11-21T05:25:08;4.90;;;2.47;;
54881;SDS011;40775;51.448;4.742;2023-11-21T05:27:37;6.95;;;2.50;;
54881;SDS011;40775;51.448;4.742;2023-11-21T05:30:05;4.50;;;2.45;;
54881;SDS011;40775;51.448;4.742;2023-11-21T05:32:33;5.20;;;2.92;;
54881;SDS011;40775;51.448;4.742;2023-11-21T05:35:00;4.70;;;2.40;;
54881;SDS011;40775;51.448;4.742;2023-11-21T05:37:27;5.72;;;2.55;;
54881;SDS011;40775;51.448;4.742;2023-11-21T05:39:55;4.35;;;2.30;;
54881;SDS011;40775;51.448;4.742;2023-11-21T05:42:26;7.80;;;3.13;;
54881;SDS011;40775;51.448;4.742;2023-11-21T05:44:53;6.03;;;2.67;;
54881;SDS011;40775;51.448;4.742;2023-11-21T05:47:20;6.15;;;2.58;;
54881;SDS011;40775;51.448;4.742;2023-11-21T05:49:48;6.72;;;2.35;;
54881;SDS011;40775;51.448;4.742;2023-11-21T05:52:17;4.47;;;2.33;;
54881;SDS011;40775;51.448;4.742;2023-11-21T05:54:44;8.85;;;3.30;;
54881;SDS011;40775;51.448;4.742;2023-11-21T05:57:12;5.68;;;2.50;;
54881;SDS011;40775;51.448;4.742;2023-11-21T05:59:39;5.00;;;2.45;;
54881;SDS011;40775;51.448;4.742;2023-11-21T06:02:06;3.78;;;2.22;;
54881;SDS011;40775;51.448;4.742;2023-11-21T06:04:34;5.18;;;2.40;;
54881;SDS011;40775;51.448;4.742;2023-11-21T06:07:01;4.93;;;2.53;;
54881;SDS011;40775;51.448;4.742;2023-11-21T06:09:28;6.15;;;3.03;;
54881;SDS011;40775;51.448;4.742;2023-11-21T06:11:55;5.43;;;2.90;;
54881;SDS011;40775;51.448;4.742;2023-11-21T06:14:22;4.03;;;2.10;;
54881;SDS011;40775;51.448;4.742;2023-11-21T06:16:49;4.68;;;2.55;;
54881;SDS011;40775;51.448;4.742;2023-11-21T06:19:17;5.00;;;2.55;;
54881;SDS011;40775;51.448;4.742;2023-11-21T06:21:47;4.40;;;2.38;;
54881;SDS011;40775;51.448;4.742;2023-11-21T06:24:14;5.63;;;2.40;;
54881;SDS011;40775;51.448;4.742;2023-11-21T06:26:41;5.82;;;2.65;;
54881;SDS011;40775;51.448;4.742;2023-11-21T06:29:10;4.45;;;2.45;;
54881;SDS011;40775;51.448;4.742;2023-11-21T06:31:37;5.32;;;2.67;;
54881;SDS011;40775;51.448;4.742;2023-11-21T06:34:04;5.13;;;2.53;;
54881;SDS011;40775;51.448;4.742;2023-11-21T06:36:31;8.57;;;2.38;;
54881;SDS011;40775;51.448;4.742;2023-11-21T06:38:58;4.93;;;2.60;;
54881;SDS011;40775;51.448;4.742;2023-11-21T06:41:25;5.45;;;2.35;;
54881;SDS011;40775;51.448;4.742;2023-11-21T06:43:52;5.18;;;2.50;;
54881;SDS011;40775;51.448;4.742;2023-11-21T06:46:19;19.17;;;10.23;;
54881;SDS011;40775;51.448;4.742;2023-11-21T06:48:46;14.25;;;8.43;;
54881;SDS011;40775;51.448;4.742;2023-11-21T06:51:15;11.57;;;6.72;;
54881;SDS011;40775;51.448;4.742;2023-11-21T06:53:42;7.97;;;4.03;;
54881;SDS011;40775;51.448;4.742;2023-11-21T06:56:15;6.20;;;3.55;;
54881;SDS011;40775;51.448;4.742;2023-11-21T06:58:46;5.38;;;2.90;;
54881;SDS011;40775;51.448;4.742;2023-11-21T07:01:15;5.50;;;2.58;;
54881;SDS011;40775;51.448;4.742;2023-11-21T07:03:42;4.28;;;2.20;;
54881;SDS011;40775;51.448;4.742;2023-11-21T07:06:09;6.72;;;2.33;;
54881;SDS011;40775;51.448;4.742;2023-11-21T07:08:37;5.78;;;3.33;;
54881;SDS011;40775;51.448;4.742;2023-11-21T07:11:04;5.47;;;3.08;;
54881;SDS011;40775;51.448;4.742;2023-11-21T07:13:31;5.93;;;2.83;;
54881;SDS011;40775;51.448;4.742;2023-11-21T07:16:01;8.50;;;4.63;;
54881;SDS011;40775;51.448;4.742;2023-11-21T07:18:29;7.75;;;3.47;;
54881;SDS011;40775;51.448;4.742;2023-11-21T07:21:01;9.88;;;4.80;;
54881;SDS011;40775;51.448;4.742;2023-11-21T07:23:28;6.40;;;2.70;;
54881;SDS011;40775;51.448;4.742;2023-11-21T07:25:55;7.68;;;3.22;;
54881;SDS011;40775;51.448;4.742;2023-11-21T07:28:22;5.38;;;2.42;;
54881;SDS011;40775;51.448;4.742;2023-11-21T07:30:51;4.32;;;1.75;;
54881;SDS011;40775;51.448;4.742;2023-11-21T07:33:19;2.78;;;1.40;;
54881;SDS011;40775;51.448;4.742;2023-11-21T07:35:47;3.40;;;1.65;;
54881;SDS011;40775;51.448;4.742;2023-11-21T07:38:14;3.67;;;1.27;;
54881;SDS011;40775;51.448;4.742;2023-11-21T07:40:41;2.97;;;1.33;;
54881;SDS011;40775;51.448;4.742;2023-11-21T07:43:08;3.53;;;1.55;;
54881;SDS011;40775;51.448;4.742;2023-11-21T07:45:36;5.30;;;2.38;;
54881;SDS011;40775;51.448;4.742;2023-11-21T07:48:04;2.83;;;1.13;;
54881;SDS011;40775;51.448;4.742;2023-11-21T07:50:31;2.30;;;1.20;;
54881;SDS011;40775;51.448;4.742;2023-11-21T07:52:58;4.13;;;1.90;;
54881;SDS011;40775;51.448;4.742;2023-11-21T07:55:25;7.32;;;4.28;;
54881;SDS011;40775;51.448;4.742;2023-11-21T07:57:53;10.45;;;5.20;;
54881;SDS011;40775;51.448;4.742;2023-11-21T08:00:20;5.93;;;2.80;;
54881;SDS011;40775;51.448;4.742;2023-11-21T08:02:47;2.83;;;1.30;;
54881;SDS011;40775;51.448;4.742;2023-11-21T08:05:14;4.47;;;2.03;;
54881;SDS011;40775;51.448;4.742;2023-11-21T08:07:54;6.45;;;3.45;;
54881;SDS011;40775;51.448;4.742;2023-11-21T08:10:22;6.60;;;3.47;;
54881;SDS011;40775;51.448;4.742;2023-11-21T08:12:49;6.53;;;3.25;;
54881;SDS011;40775;51.448;4.742;2023-11-21T08:15:16;3.67;;;1.92;;
54881;SDS011;40775;51.448;4.742;2023-11-21T08:17:44;3.95;;;1.55;;
54881;SDS011;40775;51.448;4.742;2023-11-21T08:20:11;4.05;;;1.75;;
54881;SDS011;40775;51.448;4.742;2023-11-21T08:22:38;6.30;;;3.47;;
54881;SDS011;40775;51.448;4.742;2023-11-21T08:25:07;9.07;;;4.70;;
54881;SDS011;40775;51.448;4.742;2023-11-21T08:27:35;7.72;;;4.75;;
54881;SDS011;40775;51.448;4.742;2023-11-21T08:30:02;8.23;;;5.28;;
54881;SDS011;40775;51.448;4.742;2023-11-21T08:32:30;7.43;;;5.13;;
54881;SDS011;40775;51.448;4.742;2023-11-21T08:34:59;6.82;;;3.80;;
54881;SDS011;40775;51.448;4.742;2023-11-21T08:37:28;7.68;;;4.20;;
54881;SDS011;40775;51.448;4.742;2023-11-21T08:39:58;8.95;;;3.83;;
54881;SDS011;40775;51.448;4.742;2023-11-21T08:42:35;4.60;;;2.50;;
54881;SDS011;40775;51.448;4.742;2023-11-21T08:45:02;6.75;;;3.20;;
54881;SDS011;40775;51.448;4.742;2023-11-21T08:47:35;4.32;;;1.75;;
54881;SDS011;40775;51.448;4.742;2023-11-21T08:50:02;5.78;;;2.58;;
54881;SDS011;40775;51.448;4.742;2023-11-21T08:52:32;7.43;;;4.43;;
54881;SDS011;40775;51.448;4.742;2023-11-21T08:55:00;7.25;;;3.88;;
54881;SDS011;40775;51.448;4.742;2023-11-21T08:57:36;5.22;;;2.60;;
54881;SDS011;40775;51.448;4.742;2023-11-21T09:00:05;5.50;;;2.40;;
54881;SDS011;40775;51.448;4.742;2023-11-21T09:02:41;6.40;;;3.63;;
54881;SDS011;40775;51.448;4.742;2023-11-21T09:05:09;4.53;;;2.17;;
54881;SDS011;40775;51.448;4.742;2023-11-21T09:07:38;7.32;;;3.30;;
54881;SDS011;40775;51.448;4.742;2023-11-21T09:10:07;10.27;;;6.63;;
54881;SDS011;40775;51.448;4.742;2023-11-21T09:12:36;10.30;;;5.95;;
54881;SDS011;40775;51.448;4.742;2023-11-21T09:15:06;14.43;;;7.85;;
54881;SDS011;40775;51.448;4.742;2023-11-21T09:17:36;11.25;;;6.30;;
54881;SDS011;40775;51.448;4.742;2023-11-21T09:20:04;9.77;;;4.50;;
54881;SDS011;40775;51.448;4.742;2023-11-21T09:22:32;8.82;;;4.75;;
54881;SDS011;40775;51.448;4.742;2023-11-21T09:24:59;5.50;;;2.45;;
54881;SDS011;40775;51.448;4.742;2023-11-21T09:27:29;6.10;;;2.92;;
54881;SDS011;40775;51.448;4.742;2023-11-21T09:29:56;5.55;;;3.28;;
54881;SDS011;40775;51.448;4.742;2023-11-21T09:32:24;6.53;;;3.05;;
54881;SDS011;40775;51.448;4.742;2023-11-21T09:34:51;9.38;;;4.65;;
54881;SDS011;40775;51.448;4.742;2023-11-21T09:37:21;10.23;;;4.47;;
54881;SDS011;40775;51.448;4.742;2023-11-21T09:39:48;4.72;;;1.63;;
54881;SDS011;40775;51.448;4.742;2023-11-21T09:42:23;8.20;;;2.72;;
54881;SDS011;40775;51.448;4.742;2023-11-21T09:47:37;5.93;;;2.67;;
54881;SDS011;40775;51.448;4.742;2023-11-21T09:50:05;7.30;;;3.67;;
54881;SDS011;40775;51.448;4.742;2023-11-21T09:52:44;3.10;;;1.38;;
54881;SDS011;40775;51.448;4.742;2023-11-21T09:55:32;2.65;;;1.05;;
54881;SDS011;40775;51.448;4.742;2023-11-21T09:58:05;3.17;;;1.25;;
54881;SDS011;40775;51.448;4.742;2023-11-21T10:00:41;2.08;;;1.10;;
54881;SDS011;40775;51.448;4.742;2023-11-21T10:03:15;4.95;;;2.42;;
54881;SDS011;40775;51.448;4.742;2023-11-21T10:05:44;5.97;;;3.30;;
54881;SDS011;40775;51.448;4.742;2023-11-21T10:08:12;5.15;;;3.03;;
54881;SDS011;40775;51.448;4.742;2023-11-21T10:10:42;7.60;;;3.83;;
54881;SDS011;40775;51.448;4.742;2023-11-21T10:13:12;9.18;;;4.28;;
54881;SDS011;40775;51.448;4.742;2023-11-21T10:15:42;9.82;;;4.22;;
54881;SDS011;40775;51.448;4.742;2023-11-21T10:18:15;10.50;;;4.65;;
54881;SDS011;40775;51.448;4.742;2023-11-21T10:20:43;10.35;;;3.13;;
54881;SDS011;40775;51.448;4.742;2023-11-21T10:23:19;5.93;;;3.15;;
54881;SDS011;40775;51.448;4.742;2023-11-21T10:25:49;5.70;;;3.00;;
54881;SDS011;40775;51.448;4.742;2023-11-21T10:28:23;7.40;;;2.92;;
54881;SDS011;40775;51.448;4.742;2023-11-21T10:30:50;4.18;;;2.67;;
54881;SDS011;40775;51.448;4.742;2023-11-21T10:33:20;7.93;;;2.58;;
54881;SDS011;40775;51.448;4.742;2023-11-21T10:35:55;1.50;;;0.90;;
54881;SDS011;40775;51.448;4.742;2023-11-21T10:38:22;5.10;;;2.50;;
54881;SDS011;40775;51.448;4.742;2023-11-21T10:40:50;1.80;;;0.90;;
54881;SDS011;40775;51.448;4.742;2023-11-21T10:43:19;6.07;;;2.58;;
54881;SDS011;40775;51.448;4.742;2023-11-21T10:45:46;4.65;;;2.38;;
54881;SDS011;40775;51.448;4.742;2023-11-21T10:48:14;8.07;;;2.40;;
54881;SDS011;40775;51.448;4.742;2023-11-21T10:50:43;5.95;;;3.10;;
54881;SDS011;40775;51.448;4.742;2023-11-21T10:53:13;4.75;;;2.65;;
54881;SDS011;40775;51.448;4.742;2023-11-21T10:55:41;2.67;;;1.20;;
54881;SDS011;40775;51.448;4.742;2023-11-21T10:58:11;4.63;;;2.13;;
54881;SDS011;40775;51.448;4.742;2023-11-21T11:00:41;1.77;;;0.80;;
54881;SDS011;40775;51.448;4.742;2023-11-21T11:03:11;2.53;;;1.05;;
54881;SDS011;40775;51.448;4.742;2023-11-21T11:05:45;4.13;;;1.80;;
54881;SDS011;40775;51.448;4.742;2023-11-21T11:08:19;3.80;;;2.08;;
54881;SDS011;40775;51.448;4.742;2023-11-21T11:10:54;1.50;;;0.52;;
54881;SDS011;40775;51.448;4.742;2023-11-21T11:13:22;0.93;;;0.63;;
54881;SDS011;40775;51.448;4.742;2023-11-21T11:15:50;0.93;;;0.70;;
54881;SDS011;40775;51.448;4.742;2023-11-21T11:18:22;1.48;;;0.68;;
54881;SDS011;40775;51.448;4.742;2023-11-21T11:20:49;1.27;;;0.60;;
54881;SDS011;40775;51.448;4.742;2023-11-21T11:23:29;1.80;;;0.73;;
54881;SDS011;40775;51.448;4.742;2023-11-21T11:26:56;1.95;;;0.85;;
54881;SDS011;40775;51.448;4.742;2023-11-21T11:29:31;3.85;;;1.58;;
54881;SDS011;40775;51.448;4.742;2023-11-21T11:38:13;2.40;;;1.27;;
54881;SDS011;40775;51.448;4.742;2023-11-21T11:40:41;1.77;;;0.52;;
54881;SDS011;40775;51.448;4.742;2023-11-21T11:43:13;1.08;;;0.57;;
54881;SDS011;40775;51.448;4.742;2023-11-21T11:45:50;2.42;;;1.05;;
54881;SDS011;40775;51.448;4.742;2023-11-21T11:48:19;2.38;;;1.15;;
54881;SDS011;40775;51.448;4.742;2023-11-21T11:51:05;1.33;;;0.70;;
54881;SDS011;40775;51.448;4.742;2023-11-21T11:53:38;1.80;;;0.75;;
54881;SDS011;40775;51.448;4.742;2023-11-21T11:56:22;1.25;;;0.70;;
54881;SDS011;40775;51.448;4.742;2023-11-21T11:58:58;0.93;;;0.50;;
54881;SDS011;40775;51.448;4.742;2023-11-21T12:01:29;2.58;;;0.90;;
54881;SDS011;40775;51.448;4.742;2023-11-21T12:06:41;0.85;;;0.50;;
54881;SDS011;40775;51.448;4.742;2023-11-21T12:09:17;1.10;;;0.60;;
54881;SDS011;40775;51.448;4.742;2023-11-21T12:11:46;0.88;;;0.40;;
54881;SDS011;40775;51.448;4.742;2023-11-21T12:14:14;2.25;;;1.13;;
54881;SDS011;40775;51.448;4.742;2023-11-21T12:16:42;1.10;;;0.43;;
54881;SDS011;40775;51.448;4.742;2023-11-21T12:19:11;1.05;;;0.63;;
54881;SDS011;40775;51.448;4.742;2023-11-21T12:21:38;1.15;;;0.63;;
54881;SDS011;40775;51.448;4.742;2023-11-21T12:24:07;1.40;;;0.60;;
54881;SDS011;40775;51.448;4.742;2023-11-21T12:29:08;0.30;;;0.25;;
54881;SDS011;40775;51.448;4.742;2023-11-21T12:31:35;0.82;;;0.57;;
54881;SDS011;40775;51.448;4.742;2023-11-21T12:34:02;1.40;;;0.70;;
54881;SDS011;40775;51.448;4.742;2023-11-21T12:36:30;1.00;;;0.50;;
54881;SDS011;40775;51.448;4.742;2023-11-21T12:38:57;1.10;;;0.60;;
54881;SDS011;40775;51.448;4.742;2023-11-21T12:41:25;1.08;;;0.50;;
54881;SDS011;40775;51.448;4.742;2023-11-21T12:43:52;1.73;;;0.50;;
54881;SDS011;40775;51.448;4.742;2023-11-21T12:46:19;1.17;;;0.73;;
54881;SDS011;40775;51.448;4.742;2023-11-21T12:48:46;0.32;;;0.30;;
54881;SDS011;40775;51.448;4.742;2023-11-21T12:51:14;1.23;;;0.65;;
54881;SDS011;40775;51.448;4.742;2023-11-21T12:53:42;1.70;;;0.60;;
54881;SDS011;40775;51.448;4.742;2023-11-21T12:56:10;1.63;;;0.70;;
54881;SDS011;40775;51.448;4.742;2023-11-21T12:58:38;0.80;;;0.47;;
54881;SDS011;40775;51.448;4.742;2023-11-21T13:01:12;1.02;;;0.52;;
54881;SDS011;40775;51.448;4.742;2023-11-21T13:03:47;0.75;;;0.40;;
54881;SDS011;40775;51.448;4.742;2023-11-21T13:06:18;1.02;;;0.70;;
54881;SDS011;40775;51.448;4.742;2023-11-21T13:08:46;2.45;;;0.50;;
54881;SDS011;40775;51.448;4.742;2023-11-21T13:11:13;0.73;;;0.47;;
54881;SDS011;40775;51.448;4.742;2023-11-21T13:13:41;1.85;;;0.50;;
54881;SDS011;40775;51.448;4.742;2023-11-21T13:16:12;0.93;;;0.40;;
54881;SDS011;40775;51.448;4.742;2023-11-21T13:18:39;0.47;;;0.32;;
54881;SDS011;40775;51.448;4.742;2023-11-21T13:21:08;1.42;;;0.47;;
54881;SDS011;40775;51.448;4.742;2023-11-21T13:23:43;1.98;;;0.50;;
54881;SDS011;40775;51.448;4.742;2023-11-21T13:26:12;1.30;;;0.52;;
54881;SDS011;40775;51.448;4.742;2023-11-21T13:28:41;1.25;;;0.50;;
54881;SDS011;40775;51.448;4.742;2023-11-21T13:31:13;0.77;;;0.50;;
54881;SDS011;40775;51.448;4.742;2023-11-21T13:33:53;1.17;;;0.40;;
54881;SDS011;40775;51.448;4.742;2023-11-21T13:36:30;0.98;;;0.55;;
54881;SDS011;40775;51.448;4.742;2023-11-21T13:38:59;1.10;;;0.70;;
54881;SDS011;40775;51.448;4.742;2023-11-21T13:41:33;0.80;;;0.40;;
54881;SDS011;40775;51.448;4.742;2023-11-21T13:44:00;1.02;;;0.40;;
54881;SDS011;40775;51.448;4.742;2023-11-21T13:46:53;0.40;;;0.30;;
54881;SDS011;40775;51.448;4.742;2023-11-21T13:49:23;1.23;;;0.47;;
54881;SDS011;40775;51.448;4.742;2023-11-21T13:51:51;0.52;;;0.35;;
54881;SDS011;40775;51.448;4.742;2023-11-21T13:54:21;1.30;;;0.50;;
54881;SDS011;40775;51.448;4.742;2023-11-21T13:56:50;6.50;;;0.65;;
54881;SDS011;40775;51.448;4.742;2023-11-21T13:59:17;0.45;;;0.30;;
54881;SDS011;40775;51.448;4.742;2023-11-21T14:01:49;1.30;;;0.45;;
54881;SDS011;40775;51.448;4.742;2023-11-21T14:04:20;0.90;;;0.40;;
54881;SDS011;40775;51.448;4.742;2023-11-21T14:07:05;1.30;;;0.43;;
54881;SDS011;40775;51.448;4.742;2023-11-21T14:09:50;1.33;;;0.40;;
54881;SDS011;40775;51.448;4.742;2023-11-21T14:12:19;0.88;;;0.43;;
54881;SDS011;40775;51.448;4.742;2023-11-21T14:14:46;1.70;;;0.50;;
54881;SDS011;40775;51.448;4.742;2023-11-21T14:17:14;1.00;;;0.50;;
54881;SDS011;40775;51.448;4.742;2023-11-21T14:19:41;0.82;;;0.40;;
54881;SDS011;40775;51.448;4.742;2023-11-21T14:22:10;0.68;;;0.40;;
54881;SDS011;40775;51.448;4.742;2023-11-21T14:24:37;1.52;;;0.45;;
54881;SDS011;40775;51.448;4.742;2023-11-21T14:27:10;0.85;;;0.45;;
54881;SDS011;40775;51.448;4.742;2023-11-21T14:29:37;0.40;;;0.30;;
54881;SDS011;40775;51.448;4.742;2023-11-21T14:32:06;1.50;;;0.50;;
54881;SDS011;40775;51.448;4.742;2023-11-21T14:34:34;0.65;;;0.30;;
54881;SDS011;40775;51.448;4.742;2023-11-21T14:37:01;0.75;;;0.40;;
54881;SDS011;40775;51.448;4.742;2023-11-21T14:39:31;2.33;;;0.60;;
54881;SDS011;40775;51.448;4.742;2023-11-21T14:42:04;0.73;;;0.40;;
54881;SDS011;40775;51.448;4.742;2023-11-21T14:44:31;0.90;;;0.50;;
54881;SDS011;40775;51.448;4.742;2023-11-21T14:47:04;0.63;;;0.50;;
54881;SDS011;40775;51.448;4.742;2023-11-21T14:49:39;1.05;;;0.55;;
54881;SDS011;40775;51.448;4.742;2023-11-21T14:52:21;0.50;;;0.28;;
54881;SDS011;40775;51.448;4.742;2023-11-21T14:55:03;1.35;;;0.63;;
54881;SDS011;40775;51.448;4.742;2023-11-21T14:57:49;0.30;;;0.30;;
54881;SDS011;40775;51.448;4.742;2023-11-21T15:00:17;0.65;;;0.40;;
54881;SDS011;40775;51.448;4.742;2023-11-21T15:03:02;0.82;;;0.52;;
54881;SDS011;40775;51.448;4.742;2023-11-21T15:05:31;0.55;;;0.30;;
54881;SDS011;40775;51.448;4.742;2023-11-21T15:08:01;0.95;;;0.35;;
54881;SDS011;40775;51.448;4.742;2023-11-21T15:10:46;1.13;;;0.35;;
54881;SDS011;40775;51.448;4.742;2023-11-21T15:15:48;0.57;;;0.30;;
54881;SDS011;40775;51.448;4.742;2023-11-21T15:18:17;0.88;;;0.32;;
54881;SDS011;40775;51.448;4.742;2023-11-21T15:20:44;0.47;;;0.28;;